CheckWX is a tool to help pilots better visualize weather data.  It is not intended as a substitute for an official pre-flight weather briefing.

14:20:27 UTC

PHOG METAR
Kahului Airport
Kahului, Hawaii, USA
Current

26 mins ago

PHOG 251354Z AUTO 04014KT 10SM FEW055 26/22 A2995 RMK AO2 SLP145 T02560217 TSNO $
Observed
Aug-25 @ 13:54 UTC
Wind
  • 040° at 14 KTS
Visibility
10 SM
Flight Rules
VFR
Cloud Levels
  • Few at 5,500' AGL
Temperature
26°C / 79°F
Dewpoint
22°C / 72°F
Humidity
79%
Altimeter
29.95" Hg
Pressure
1014.22 hPa
Previous

1 hour ago

PHOG 251254Z AUTO 05012KT 10SM FEW039 OVC050 27/20 A2995 RMK AO2 SLP146 T02670200 TSNO $
Observed
Aug-25 @ 12:54 UTC
Wind
  • 050° at 12 KTS
Visibility
10 SM
Flight Rules
VFR
Cloud Levels
  • Few at 3,900' AGL
  • Overcast at 5,000' AGL
Temperature
27°C / 81°F
Dewpoint
20°C / 68°F
Heat Index
29°C / 84°F
Humidity
66%
Altimeter
29.95" Hg
Pressure
1014.22 hPa
Previous

2 hours ago

PHOG 251154Z AUTO 06012KT 10SM FEW050 26/20 A2996 RMK AO2 SLP151 T02610200 10278 20261 58010 TSNO $
Observed
Aug-25 @ 11:54 UTC
Wind
  • 060° at 12 KTS
Visibility
10 SM
Flight Rules
VFR
Cloud Levels
  • Few at 5,000' AGL
Temperature
26°C / 79°F
Dewpoint
20°C / 68°F
Humidity
70%
Altimeter
29.96" Hg
Pressure
1014.52 hPa